createdAt,value
2023-02-27T00:00:15.239Z,100.00
2023-02-27T00:02:43.853Z,100.00
2023-02-27T00:05:11.288Z,100.00
2023-02-27T00:07:38.307Z,100.00
2023-02-27T00:10:05.513Z,100.00
2023-02-27T00:12:37.912Z,100.00
2023-02-27T00:15:06.100Z,100.00
2023-02-27T00:17:32.806Z,100.00
2023-02-27T00:19:59.777Z,100.00
2023-02-27T00:22:26.841Z,100.00
2023-02-27T00:24:53.828Z,100.00
2023-02-27T00:27:20.854Z,100.00
2023-02-27T00:29:50.862Z,100.00
2023-02-27T00:32:20.254Z,100.00
2023-02-27T00:34:46.926Z,100.00
2023-02-27T00:37:13.665Z,100.00
2023-02-27T00:39:40.251Z,100.00
2023-02-27T00:42:07.085Z,100.00
2023-02-27T00:44:33.754Z,100.00
2023-02-27T00:47:00.385Z,100.00
2023-02-27T00:49:27.036Z,100.00
2023-02-27T00:51:53.884Z,100.00
2023-02-27T00:54:20.646Z,100.00
2023-02-27T00:56:47.260Z,100.00
2023-02-27T00:59:14.040Z,100.00
2023-02-27T01:01:41.516Z,100.00
2023-02-27T01:04:08.469Z,100.00
2023-02-27T01:06:35.269Z,100.00
2023-02-27T01:09:04.178Z,100.00
2023-02-27T01:11:31.312Z,100.00
2023-02-27T01:13:57.956Z,100.00
2023-02-27T01:16:27.292Z,100.00
2023-02-27T01:18:54.236Z,100.00
2023-02-27T01:21:21.935Z,100.00
2023-02-27T01:23:48.936Z,100.00
2023-02-27T01:26:15.789Z,100.00
2023-02-27T01:28:42.520Z,100.00
2023-02-27T01:31:09.481Z,100.00
2023-02-27T01:33:36.367Z,100.00
2023-02-27T01:36:03.317Z,100.00
2023-02-27T01:38:30.122Z,100.00
2023-02-27T01:41:00.786Z,100.00
2023-02-27T01:43:28.125Z,100.00
2023-02-27T01:45:55.000Z,100.00
2023-02-27T01:48:31.760Z,100.00
2023-02-27T01:51:03.626Z,100.00
2023-02-27T01:53:31.375Z,100.00
2023-02-27T01:56:02.886Z,100.00
2023-02-27T01:58:29.912Z,100.00
2023-02-27T02:00:57.327Z,100.00
2023-02-27T02:03:38.144Z,100.00
2023-02-27T02:06:06.184Z,100.00
2023-02-27T02:08:37.431Z,100.00
2023-02-27T02:11:05.729Z,100.00
2023-02-27T02:13:33.511Z,100.00
2023-02-27T02:16:15.378Z,100.00
2023-02-27T02:18:48.335Z,100.00
2023-02-27T02:21:40.703Z,100.00
2023-02-27T02:24:50.819Z,100.00
2023-02-27T02:27:42.545Z,100.00
2023-02-27T02:30:24.059Z,100.00
2023-02-27T02:33:05.664Z,100.00
2023-02-27T02:35:57.246Z,100.00
2023-02-27T02:38:45.213Z,100.00
2023-02-27T02:41:33.530Z,100.00
2023-02-27T02:44:03.049Z,100.00
2023-02-27T02:47:06.324Z,100.00
2023-02-27T02:49:44.698Z,100.00
2023-02-27T02:52:27.226Z,100.00
2023-02-27T02:55:05.751Z,100.00
2023-02-27T02:57:44.031Z,100.00
2023-02-27T03:00:17.440Z,100.00
2023-02-27T03:02:48.261Z,100.00
2023-02-27T03:05:19.202Z,100.00
2023-02-27T03:07:57.130Z,100.00
2023-02-27T03:10:31.758Z,100.00
2023-02-27T03:13:18.586Z,100.00
2023-02-27T03:15:53.145Z,100.00
2023-02-27T03:18:24.656Z,100.00
2023-02-27T03:21:00.366Z,100.00
2023-02-27T03:23:37.878Z,100.00
2023-02-27T03:26:05.229Z,100.00
2023-02-27T03:28:35.493Z,100.00
2023-02-27T03:31:21.299Z,100.00
2023-02-27T03:34:01.446Z,100.00
2023-02-27T03:36:47.704Z,100.00
2023-02-27T03:39:45.317Z,100.00
2023-02-27T03:42:37.954Z,100.00
2023-02-27T03:45:07.548Z,100.00
2023-02-27T03:47:34.606Z,100.00
2023-02-27T03:50:01.232Z,100.00
2023-02-27T03:52:29.790Z,100.00
2023-02-27T03:55:10.375Z,100.00
2023-02-27T03:57:37.951Z,100.00
2023-02-27T04:00:06.476Z,100.00
2023-02-27T04:02:33.572Z,100.00
2023-02-27T04:05:00.225Z,100.00
2023-02-27T04:07:34.840Z,100.00
2023-02-27T04:10:21.390Z,100.00
2023-02-27T04:12:53.713Z,100.00
2023-02-27T04:15:47.778Z,100.00
2023-02-27T04:18:18.644Z,100.00
2023-02-27T04:20:50.245Z,100.00
2023-02-27T04:23:27.982Z,100.00
2023-02-27T04:26:25.627Z,100.00
2023-02-27T04:29:06.261Z,100.00
2023-02-27T04:31:32.877Z,100.00
2023-02-27T04:34:10.332Z,100.00
2023-02-27T04:36:45.147Z,100.00
2023-02-27T04:39:24.246Z,100.00
2023-02-27T04:41:57.882Z,100.00
2023-02-27T04:44:25.344Z,100.00
2023-02-27T04:46:52.807Z,100.00
2023-02-27T04:49:33.391Z,100.00
2023-02-27T04:52:07.259Z,100.00
2023-02-27T04:55:05.446Z,100.00
2023-02-27T04:57:41.249Z,100.00
2023-02-27T05:00:11.860Z,100.00
2023-02-27T05:02:42.952Z,100.00
2023-02-27T05:05:13.738Z,100.00
2023-02-27T05:07:47.740Z,100.00
2023-02-27T05:10:22.106Z,100.00
2023-02-27T05:12:52.640Z,100.00
2023-02-27T05:15:32.823Z,100.00
2023-02-27T05:18:02.993Z,100.00
2023-02-27T05:21:08.638Z,100.00
2023-02-27T05:23:48.775Z,100.00
2023-02-27T05:26:23.720Z,100.00
2023-02-27T05:29:06.065Z,100.00
2023-02-27T05:31:37.420Z,100.00
2023-02-27T05:34:14.324Z,100.00
2023-02-27T05:36:57.287Z,100.00
2023-02-27T05:39:27.137Z,100.00
2023-02-27T05:42:00.968Z,100.00
2023-02-27T05:44:43.645Z,100.00
2023-02-27T05:47:13.190Z,100.00
2023-02-27T05:49:43.425Z,100.00
2023-02-27T05:52:12.721Z,100.00
2023-02-27T05:54:48.268Z,100.00
2023-02-27T05:57:19.985Z,100.00
2023-02-27T05:59:52.839Z,100.00
2023-02-27T06:02:19.643Z,100.00
2023-02-27T06:04:46.286Z,100.00
2023-02-27T06:07:16.064Z,100.00
2023-02-27T06:09:44.011Z,100.00
2023-02-27T06:12:10.639Z,100.00
2023-02-27T06:14:37.220Z,100.00
2023-02-27T06:17:03.900Z,100.00
2023-02-27T06:19:30.537Z,100.00
2023-02-27T06:21:57.144Z,100.00
2023-02-27T06:24:23.736Z,100.00
2023-02-27T06:26:50.353Z,100.00
2023-02-27T06:29:17.502Z,100.00
2023-02-27T06:31:44.177Z,100.00
2023-02-27T06:34:10.893Z,100.00
2023-02-27T06:36:37.580Z,100.00
2023-02-27T06:39:04.943Z,100.00
2023-02-27T06:41:31.548Z,100.00
2023-02-27T06:43:58.173Z,100.00
2023-02-27T06:46:25.440Z,100.00
2023-02-27T06:48:52.180Z,100.00
2023-02-27T06:51:18.859Z,100.00
2023-02-27T06:53:45.477Z,100.00
2023-02-27T06:56:12.110Z,100.00
2023-02-27T06:58:38.709Z,100.00
2023-02-27T07:01:05.408Z,100.00
2023-02-27T07:03:32.127Z,100.00
2023-02-27T07:05:59.185Z,100.00
2023-02-27T07:08:26.141Z,100.00
2023-02-27T07:10:52.882Z,100.00
2023-02-27T07:13:19.985Z,100.00
2023-02-27T07:15:46.926Z,100.00
2023-02-27T07:18:13.770Z,100.00
2023-02-27T07:20:40.548Z,100.00
2023-02-27T07:23:07.486Z,100.00
2023-02-27T07:25:34.229Z,100.00
2023-02-27T07:28:00.862Z,100.00
2023-02-27T07:30:27.504Z,100.00
2023-02-27T07:32:54.115Z,100.00
2023-02-27T07:35:20.725Z,100.00
2023-02-27T07:37:47.769Z,100.00
2023-02-27T07:40:14.874Z,100.00
2023-02-27T07:42:41.552Z,100.00
2023-02-27T07:45:08.972Z,100.00
2023-02-27T07:47:36.016Z,100.00
2023-02-27T07:50:03.786Z,100.00
2023-02-27T07:52:32.026Z,100.00
2023-02-27T07:54:58.689Z,100.00
2023-02-27T07:57:25.707Z,100.00
2023-02-27T07:59:52.318Z,100.00
2023-02-27T08:02:19.108Z,100.00
2023-02-27T08:04:45.837Z,100.00
2023-02-27T08:07:12.524Z,100.00
2023-02-27T08:09:39.149Z,100.00
2023-02-27T08:12:05.849Z,100.00
2023-02-27T08:14:32.499Z,100.00
2023-02-27T08:17:00.425Z,100.00
2023-02-27T08:19:27.369Z,100.00
2023-02-27T08:21:54.149Z,100.00
2023-02-27T08:24:20.779Z,100.00
2023-02-27T08:26:47.680Z,100.00
2023-02-27T08:29:16.874Z,100.00
2023-02-27T08:31:43.809Z,100.00
2023-02-27T08:34:10.985Z,100.00
2023-02-27T08:36:38.043Z,100.00
2023-02-27T08:39:05.834Z,100.00
2023-02-27T08:41:32.464Z,100.00
2023-02-27T08:43:59.335Z,100.00
2023-02-27T08:46:26.780Z,100.00
2023-02-27T08:48:53.981Z,100.00
2023-02-27T08:51:21.535Z,100.00
2023-02-27T08:53:48.169Z,100.00
2023-02-27T08:56:14.771Z,100.00
2023-02-27T08:58:41.434Z,100.00
2023-02-27T09:01:08.134Z,100.00
2023-02-27T09:03:34.849Z,100.00
2023-02-27T09:06:01.487Z,100.00
2023-02-27T09:08:28.170Z,100.00
2023-02-27T09:10:58.171Z,100.00
2023-02-27T09:13:24.878Z,100.00
2023-02-27T09:15:51.532Z,100.00
2023-02-27T09:18:18.172Z,100.00
2023-02-27T09:20:44.901Z,100.00
2023-02-27T09:23:11.654Z,100.00
2023-02-27T09:25:38.337Z,100.00
2023-02-27T09:28:05.134Z,100.00
2023-02-27T09:30:31.790Z,100.00
2023-02-27T09:32:58.433Z,100.00
2023-02-27T09:35:25.603Z,100.00
2023-02-27T09:37:52.276Z,100.00
2023-02-27T09:40:30.516Z,100.00
2023-02-27T09:43:01.361Z,100.00
2023-02-27T09:45:30.178Z,100.00
2023-02-27T09:48:30.221Z,100.00
2023-02-27T09:50:57.414Z,100.00
2023-02-27T09:53:33.508Z,100.00
2023-02-27T09:56:41.730Z,100.00
2023-02-27T09:59:46.058Z,100.00
2023-02-27T10:02:31.314Z,100.00
2023-02-27T10:05:19.738Z,100.00
2023-02-27T10:08:12.224Z,100.00
2023-02-27T10:11:00.180Z,100.00
2023-02-27T10:13:42.895Z,100.00
2023-02-27T10:16:12.628Z,100.00
2023-02-27T10:18:55.214Z,100.00
2023-02-27T10:21:31.388Z,100.00
2023-02-27T10:24:10.837Z,100.00
2023-02-27T10:26:40.961Z,100.00
2023-02-27T10:29:27.627Z,100.00
2023-02-27T10:32:01.414Z,100.00
2023-02-27T10:34:29.985Z,100.00
2023-02-27T10:36:58.976Z,100.00
2023-02-27T10:39:26.473Z,100.00
2023-02-27T10:41:53.256Z,97.33
2023-02-27T10:44:20.152Z,99.17
2023-02-27T10:46:49.565Z,93.73
2023-02-27T10:49:22.282Z,95.98
2023-02-27T10:52:12.517Z,92.85
2023-02-27T10:54:39.981Z,94.93
2023-02-27T10:57:20.158Z,93.89
2023-02-27T10:59:59.136Z,87.18
2023-02-27T11:02:31.630Z,82.73
2023-02-27T11:04:59.861Z,84.77
2023-02-27T11:07:35.460Z,85.89
2023-02-27T11:10:17.999Z,82.41
2023-02-27T11:13:21.571Z,75.54
2023-02-27T11:16:05.317Z,78.54
2023-02-27T11:18:32.485Z,78.92
2023-02-27T11:21:23.047Z,75.24
2023-02-27T11:23:55.833Z,70.05
2023-02-27T11:26:36.331Z,65.95
2023-02-27T11:29:23.333Z,65.17
2023-02-27T11:31:56.017Z,67.22
2023-02-27T11:34:26.656Z,69.94
2023-02-27T11:36:56.984Z,66.98
2023-02-27T11:40:02.094Z,68.18
2023-02-27T11:42:31.627Z,63.05
2023-02-27T11:45:01.832Z,70.73
2023-02-27T11:47:34.636Z,67.50
2023-02-27T11:50:04.728Z,70.52
2023-02-27T11:53:03.169Z,69.80
2023-02-27T11:55:30.188Z,68.97
2023-02-27T11:58:05.261Z,64.45
2023-02-27T12:00:36.999Z,66.44
2023-02-27T12:03:42.409Z,69.89
2023-02-27T12:06:20.886Z,71.13
2023-02-27T12:08:52.301Z,72.83
2023-02-27T12:11:28.230Z,68.42
2023-02-27T12:14:01.995Z,70.74
2023-02-27T12:16:46.747Z,69.22
2023-02-27T12:19:25.336Z,70.06
2023-02-27T12:22:22.358Z,67.75
2023-02-27T12:25:02.960Z,66.63
2023-02-27T12:27:43.922Z,68.25
2023-02-27T12:30:16.887Z,68.84
2023-02-27T12:32:51.986Z,69.19
2023-02-27T12:35:27.095Z,63.72
2023-02-27T12:37:53.842Z,62.84
2023-02-27T12:40:35.148Z,65.68
2023-02-27T12:43:26.272Z,64.43
2023-02-27T12:46:43.984Z,64.73
2023-02-27T12:49:14.858Z,63.08
2023-02-27T12:51:59.606Z,61.58
2023-02-27T12:54:35.981Z,64.74
2023-02-27T12:57:28.284Z,65.29
2023-02-27T13:00:09.406Z,65.12
2023-02-27T13:02:45.306Z,65.40
2023-02-27T13:05:27.028Z,66.76
2023-02-27T13:07:59.236Z,66.76
2023-02-27T13:10:34.553Z,65.08
2023-02-27T13:13:09.671Z,67.21
2023-02-27T13:15:42.393Z,69.00
2023-02-27T13:18:33.885Z,67.44
2023-02-27T13:21:12.896Z,66.87
2023-02-27T13:24:38.397Z,67.99
2023-02-27T13:27:12.753Z,68.38
2023-02-27T13:29:40.002Z,67.86
2023-02-27T13:32:36.514Z,70.05
2023-02-27T13:35:21.762Z,61.65
2023-02-27T13:37:52.673Z,61.14
2023-02-27T13:40:40.038Z,61.77
2023-02-27T13:43:30.361Z,59.04
2023-02-27T13:46:01.991Z,53.82
2023-02-27T13:48:42.015Z,53.86
2023-02-27T13:51:11.393Z,55.26
2023-02-27T13:53:38.319Z,53.00
2023-02-27T13:56:22.821Z,56.56
2023-02-27T13:58:50.354Z,57.69
2023-02-27T14:01:27.291Z,54.11
2023-02-27T14:03:56.713Z,59.67
2023-02-27T14:06:25.194Z,58.50
2023-02-27T14:08:55.698Z,54.65
2023-02-27T14:11:34.398Z,56.01
2023-02-27T14:14:03.382Z,56.36
2023-02-27T14:16:39.117Z,61.69
2023-02-27T14:19:22.686Z,62.56
2023-02-27T14:21:49.954Z,63.49
2023-02-27T14:24:18.937Z,64.85
2023-02-27T14:26:46.697Z,61.72
2023-02-27T14:29:23.476Z,63.49
2023-02-27T14:31:51.771Z,60.69
2023-02-27T14:34:21.330Z,57.79
2023-02-27T14:36:53.155Z,54.75
2023-02-27T14:39:30.552Z,55.99
2023-02-27T14:42:12.847Z,58.91
2023-02-27T14:44:43.671Z,55.71
2023-02-27T14:47:19.065Z,59.21
2023-02-27T14:49:47.311Z,62.37
2023-02-27T14:52:20.640Z,59.61
2023-02-27T14:54:48.612Z,60.52
2023-02-27T14:57:25.749Z,62.98
2023-02-27T14:59:54.343Z,62.61
2023-02-27T15:02:24.871Z,63.39
2023-02-27T15:05:15.864Z,61.62
2023-02-27T15:07:46.295Z,62.58
2023-02-27T15:10:24.703Z,65.10
2023-02-27T15:12:52.389Z,66.28
2023-02-27T15:15:21.249Z,69.79
2023-02-27T15:17:47.978Z,71.44
2023-02-27T15:20:30.190Z,73.78
2023-02-27T15:23:01.785Z,72.33
2023-02-27T15:25:37.354Z,73.38
2023-02-27T15:28:20.512Z,76.21
2023-02-27T15:30:51.743Z,78.41
2023-02-27T15:33:18.729Z,80.14
2023-02-27T15:35:46.177Z,79.19
2023-02-27T15:38:35.342Z,78.65
2023-02-27T15:41:03.476Z,79.01
2023-02-27T15:43:30.701Z,79.35
2023-02-27T15:45:58.311Z,77.54
2023-02-27T15:48:25.546Z,77.54
2023-02-27T15:50:58.047Z,79.54
2023-02-27T15:53:29.890Z,76.40
2023-02-27T15:55:59.399Z,78.74
2023-02-27T15:58:29.016Z,77.86
2023-02-27T16:01:00.979Z,78.31
2023-02-27T16:03:33.084Z,79.27
2023-02-27T16:06:00.168Z,79.43
2023-02-27T16:08:28.278Z,80.46
2023-02-27T16:10:55.005Z,81.95
2023-02-27T16:13:25.485Z,83.32
2023-02-27T16:16:00.552Z,85.88
2023-02-27T16:18:32.016Z,86.82
2023-02-27T16:21:15.652Z,87.33
2023-02-27T16:23:42.983Z,87.62
2023-02-27T16:26:26.934Z,88.24
2023-02-27T16:29:03.808Z,89.22
2023-02-27T16:31:35.959Z,89.55
2023-02-27T16:34:45.064Z,89.52
2023-02-27T16:37:23.704Z,89.74
2023-02-27T16:39:52.161Z,88.84
2023-02-27T16:42:18.876Z,89.42
2023-02-27T16:44:45.534Z,90.85
2023-02-27T16:47:12.638Z,91.32
2023-02-27T16:49:40.522Z,90.39
2023-02-27T16:52:11.293Z,92.93
2023-02-27T16:54:38.288Z,94.12
2023-02-27T16:57:05.086Z,93.58
2023-02-27T16:59:36.662Z,94.57
2023-02-27T17:02:05.595Z,95.69
2023-02-27T17:04:32.514Z,96.31
2023-02-27T17:07:00.832Z,98.14
2023-02-27T17:09:28.343Z,98.67
2023-02-27T17:11:56.151Z,99.60
2023-02-27T17:14:23.344Z,99.29
2023-02-27T17:16:49.996Z,100.00
2023-02-27T17:19:16.628Z,100.00
2023-02-27T17:21:43.305Z,100.00
2023-02-27T17:24:09.906Z,100.00
2023-02-27T17:26:36.676Z,100.00
2023-02-27T17:29:04.026Z,100.00
2023-02-27T17:31:31.110Z,100.00
2023-02-27T17:33:57.714Z,100.00
2023-02-27T17:36:24.347Z,100.00
2023-02-27T17:38:58.304Z,100.00
2023-02-27T17:41:24.957Z,100.00
2023-02-27T17:43:56.116Z,100.00
2023-02-27T17:46:24.100Z,100.00
2023-02-27T17:48:50.829Z,100.00
2023-02-27T17:51:18.575Z,100.00
2023-02-27T17:53:45.355Z,100.00
2023-02-27T17:56:12.918Z,100.00
2023-02-27T17:58:40.038Z,100.00
2023-02-27T18:01:12.676Z,100.00
2023-02-27T18:03:39.557Z,100.00
2023-02-27T18:06:07.175Z,100.00
2023-02-27T18:08:33.992Z,100.00
2023-02-27T18:11:01.186Z,100.00
2023-02-27T18:13:28.440Z,100.00
2023-02-27T18:15:55.929Z,100.00
2023-02-27T18:18:23.253Z,100.00
2023-02-27T18:21:01.194Z,100.00
2023-02-27T18:23:28.005Z,100.00
2023-02-27T18:25:58.681Z,100.00
2023-02-27T18:28:26.318Z,100.00
2023-02-27T18:30:53.010Z,100.00
2023-02-27T18:33:19.735Z,100.00
2023-02-27T18:35:46.933Z,100.00
2023-02-27T18:38:13.575Z,100.00
2023-02-27T18:40:40.463Z,100.00
2023-02-27T18:43:07.678Z,100.00
2023-02-27T18:45:34.649Z,100.00
2023-02-27T18:48:01.246Z,100.00
2023-02-27T18:50:28.162Z,100.00
2023-02-27T18:52:56.156Z,100.00
2023-02-27T18:55:22.816Z,100.00
2023-02-27T18:57:52.864Z,100.00
2023-02-27T19:00:27.533Z,100.00
2023-02-27T19:02:54.589Z,100.00
2023-02-27T19:05:21.896Z,100.00
2023-02-27T19:07:49.073Z,100.00
2023-02-27T19:10:16.311Z,100.00
2023-02-27T19:12:43.083Z,100.00
2023-02-27T19:15:11.143Z,100.00
2023-02-27T19:17:43.017Z,100.00
2023-02-27T19:20:14.358Z,100.00
2023-02-27T19:22:47.013Z,100.00
2023-02-27T19:25:13.613Z,100.00
2023-02-27T19:27:40.584Z,100.00
2023-02-27T19:30:08.463Z,100.00
2023-02-27T19:32:35.340Z,100.00
2023-02-27T19:35:01.938Z,100.00
2023-02-27T19:37:28.574Z,100.00
2023-02-27T19:39:55.186Z,100.00
2023-02-27T19:42:22.093Z,100.00
2023-02-27T19:44:48.927Z,100.00
2023-02-27T19:47:15.600Z,100.00
2023-02-27T19:49:42.544Z,100.00
2023-02-27T19:52:10.355Z,100.00
2023-02-27T19:54:37.603Z,100.00
2023-02-27T19:57:13.594Z,100.00
2023-02-27T19:59:45.309Z,100.00
2023-02-27T20:02:12.046Z,100.00
2023-02-27T20:04:42.136Z,100.00
2023-02-27T20:07:14.794Z,100.00
2023-02-27T20:09:41.577Z,100.00
2023-02-27T20:12:09.514Z,100.00
2023-02-27T20:14:36.716Z,100.00
2023-02-27T20:17:03.557Z,100.00
2023-02-27T20:19:30.404Z,100.00
2023-02-27T20:21:57.554Z,100.00
2023-02-27T20:24:27.434Z,100.00
2023-02-27T20:26:54.639Z,100.00
2023-02-27T20:29:23.541Z,100.00
2023-02-27T20:31:51.383Z,100.00
2023-02-27T20:34:21.945Z,100.00
2023-02-27T20:36:53.749Z,100.00
2023-02-27T20:39:21.380Z,100.00
2023-02-27T20:41:48.818Z,100.00
2023-02-27T20:44:15.475Z,100.00
2023-02-27T20:46:43.030Z,100.00
2023-02-27T20:49:12.568Z,100.00
2023-02-27T20:51:40.060Z,100.00
2023-02-27T20:54:09.024Z,100.00
2023-02-27T20:56:38.321Z,100.00
2023-02-27T20:59:06.933Z,100.00
2023-02-27T21:01:33.900Z,100.00
2023-02-27T21:04:01.306Z,100.00
2023-02-27T21:06:28.218Z,100.00
2023-02-27T21:08:56.581Z,100.00
2023-02-27T21:11:27.566Z,100.00
2023-02-27T21:13:56.066Z,100.00
2023-02-27T21:16:24.369Z,100.00
2023-02-27T21:18:52.298Z,100.00
2023-02-27T21:21:22.946Z,100.00
2023-02-27T21:23:50.191Z,100.00
2023-02-27T21:26:20.525Z,100.00
2023-02-27T21:29:00.293Z,100.00
2023-02-27T21:31:29.210Z,100.00
2023-02-27T21:33:56.244Z,100.00
2023-02-27T21:36:32.576Z,100.00
2023-02-27T21:39:02.050Z,100.00
2023-02-27T21:41:29.171Z,100.00
2023-02-27T21:44:00.471Z,100.00
2023-02-27T21:46:28.112Z,100.00
2023-02-27T21:48:55.601Z,100.00
2023-02-27T21:51:37.060Z,100.00
2023-02-27T21:54:06.837Z,100.00
2023-02-27T21:56:34.087Z,100.00
2023-02-27T21:59:04.448Z,100.00
2023-02-27T22:01:31.782Z,100.00
2023-02-27T22:03:59.727Z,100.00
2023-02-27T22:06:28.315Z,100.00
2023-02-27T22:08:56.307Z,100.00
2023-02-27T22:11:25.696Z,100.00
2023-02-27T22:13:52.662Z,100.00
2023-02-27T22:16:19.681Z,100.00
2023-02-27T22:18:47.682Z,100.00
2023-02-27T22:21:21.177Z,100.00
2023-02-27T22:23:48.084Z,100.00
2023-02-27T22:26:20.698Z,100.00
2023-02-27T22:28:47.611Z,100.00
2023-02-27T22:31:19.773Z,100.00
2023-02-27T22:33:48.559Z,100.00
2023-02-27T22:36:20.302Z,100.00
2023-02-27T22:38:48.153Z,100.00
2023-02-27T22:41:20.585Z,100.00
2023-02-27T22:43:47.566Z,100.00
2023-02-27T22:46:17.329Z,100.00
2023-02-27T22:48:44.434Z,100.00
2023-02-27T22:51:14.523Z,100.00
2023-02-27T22:53:46.013Z,100.00
2023-02-27T22:56:14.266Z,100.00
2023-02-27T22:58:41.948Z,100.00
2023-02-27T23:01:13.116Z,100.00
2023-02-27T23:03:45.129Z,100.00
2023-02-27T23:06:14.705Z,100.00
2023-02-27T23:08:42.383Z,100.00
2023-02-27T23:11:10.581Z,100.00
2023-02-27T23:13:40.926Z,100.00
2023-02-27T23:16:11.715Z,100.00
2023-02-27T23:18:48.861Z,100.00
2023-02-27T23:21:17.619Z,100.00
2023-02-27T23:23:44.759Z,100.00
2023-02-27T23:26:12.241Z,100.00
2023-02-27T23:28:39.360Z,100.00
2023-02-27T23:31:07.498Z,100.00
2023-02-27T23:33:39.878Z,100.00
2023-02-27T23:36:09.134Z,100.00
2023-02-27T23:38:35.915Z,100.00
2023-02-27T23:41:09.606Z,100.00
2023-02-27T23:43:57.229Z,100.00
2023-02-27T23:46:23.906Z,100.00
2023-02-27T23:48:52.815Z,100.00
2023-02-27T23:51:19.473Z,100.00
2023-02-27T23:53:46.060Z,100.00
2023-02-27T23:56:18.220Z,100.00
2023-02-27T23:58:45.721Z,100.00
